sensor_id;sensor_type;location;lat;lon;timestamp;pressure;altitude;pressure_sealevel;temperature;humidity
82262;BME280;71861;52.364;6.580;2023-08-07T03:02:34;101125.53;;;13.98;88.89
82262;BME280;71861;52.364;6.580;2023-08-07T03:05:00;101128.31;;;13.97;88.95
82262;BME280;71861;52.364;6.580;2023-08-07T03:07:25;101129.28;;;13.96;89.24
82262;BME280;71861;52.364;6.580;2023-08-07T03:09:50;101127.81;;;13.93;89.08
82262;BME280;71861;52.364;6.580;2023-08-07T03:12:16;101132.41;;;13.91;89.00
82262;BME280;71861;52.364;6.580;2023-08-07T03:14:41;101129.97;;;13.90;89.08
82262;BME280;71861;52.364;6.580;2023-08-07T03:17:06;101130.13;;;13.88;89.03
82262;BME280;71861;52.364;6.580;2023-08-07T03:19:32;101122.66;;;13.85;88.99
82262;BME280;71861;52.364;6.580;2023-08-07T03:21:57;101127.25;;;13.83;88.94
82262;BME280;71861;52.364;6.580;2023-08-07T03:24:22;101121.38;;;13.81;89.00
82262;BME280;71861;52.364;6.580;2023-08-07T03:26:48;101125.94;;;13.79;88.81
82262;BME280;71861;52.364;6.580;2023-08-07T03:29:14;101119.94;;;13.79;88.81
82262;BME280;71861;52.364;6.580;2023-08-07T03:31:39;101115.19;;;13.74;89.17
82262;BME280;71861;52.364;6.580;2023-08-07T03:34:05;101115.19;;;13.74;89.12
82262;BME280;71861;52.364;6.580;2023-08-07T03:36:30;101117.81;;;13.74;89.19
82262;BME280;71861;52.364;6.580;2023-08-07T03:38:55;101114.41;;;13.74;89.21
82262;BME280;71861;52.364;6.580;2023-08-07T03:41:20;101116.19;;;13.73;88.94
82262;BME280;71861;52.364;6.580;2023-08-07T03:43:46;101117.19;;;13.72;89.14
82262;BME280;71861;52.364;6.580;2023-08-07T03:46:11;101120.59;;;13.73;89.23
82262;BME280;71861;52.364;6.580;2023-08-07T03:48:38;101120.75;;;13.71;89.04
82262;BME280;71861;52.364;6.580;2023-08-07T03:51:04;101122.56;;;13.71;89.18
82262;BME280;71861;52.364;6.580;2023-08-07T03:53:30;101113.91;;;13.70;88.89
82262;BME280;71861;52.364;6.580;2023-08-07T03:55:55;101107.25;;;13.68;89.11
82262;BME280;71861;52.364;6.580;2023-08-07T03:58:21;101109.88;;;13.68;89.36
82262;BME280;71861;52.364;6.580;2023-08-07T04:00:46;101117.69;;;13.68;88.90
82262;BME280;71861;52.364;6.580;2023-08-07T04:03:11;101115.88;;;13.68;89.34
82262;BME280;71861;52.364;6.580;2023-08-07T04:05:37;101109.88;;;13.68;88.97
82262;BME280;71861;52.364;6.580;2023-08-07T04:08:02;101108.03;;;13.68;88.95
82262;BME280;71861;52.364;6.580;2023-08-07T04:10:27;101109.22;;;13.66;89.00
82262;BME280;71861;52.364;6.580;2023-08-07T04:12:53;101113.00;;;13.63;89.04
82262;BME280;71861;52.364;6.580;2023-08-07T04:15:18;101113.59;;;13.65;88.97
82262;BME280;71861;52.364;6.580;2023-08-07T04:17:43;101114.44;;;13.66;88.98
82262;BME280;71861;52.364;6.580;2023-08-07T04:20:09;101112.47;;;13.68;89.20
82262;BME280;71861;52.364;6.580;2023-08-07T04:22:35;101110.66;;;13.68;89.28
82262;BME280;71861;52.364;6.580;2023-08-07T04:25:01;101117.69;;;13.68;88.98
82262;BME280;71861;52.364;6.580;2023-08-07T04:27:26;101119.31;;;13.69;89.12
82262;BME280;71861;52.364;6.580;2023-08-07T04:29:52;101121.75;;;13.70;89.07
82262;BME280;71861;52.364;6.580;2023-08-07T04:32:17;101124.19;;;13.72;89.07
82262;BME280;71861;52.364;6.580;2023-08-07T04:34:43;101127.47;;;13.74;89.00
82262;BME280;71861;52.364;6.580;2023-08-07T04:37:08;101125.31;;;13.77;89.03
82262;BME280;71861;52.364;6.580;2023-08-07T04:39:33;101120.72;;;13.79;89.08
82262;BME280;71861;52.364;6.580;2023-08-07T04:41:59;101123.00;;;13.82;89.08
82262;BME280;71861;52.364;6.580;2023-08-07T04:44:24;101124.91;;;13.88;89.32
82262;BME280;71861;52.364;6.580;2023-08-07T04:46:50;101129.78;;;13.91;89.15
82262;BME280;71861;52.364;6.580;2023-08-07T04:49:15;101130.28;;;13.95;89.38
82262;BME280;71861;52.364;6.580;2023-08-07T04:51:40;101127.13;;;13.99;89.28
82262;BME280;71861;52.364;6.580;2023-08-07T04:54:05;101133.84;;;14.02;89.36
82262;BME280;71861;52.364;6.580;2023-08-07T04:56:31;101135.94;;;14.06;89.41
82262;BME280;71861;52.364;6.580;2023-08-07T04:58:56;101139.81;;;14.10;89.42
82262;BME280;71861;52.364;6.580;2023-08-07T05:01:22;101142.72;;;14.15;89.20
82262;BME280;71861;52.364;6.580;2023-08-07T05:03:47;101151.84;;;14.19;89.22
82262;BME280;71861;52.364;6.580;2023-08-07T05:06:12;101156.56;;;14.24;89.08
82262;BME280;71861;52.364;6.580;2023-08-07T05:08:38;101150.19;;;14.26;89.13
82262;BME280;71861;52.364;6.580;2023-08-07T05:11:03;101159.97;;;14.32;89.13
82262;BME280;71861;52.364;6.580;2023-08-07T05:13:28;101164.50;;;14.38;89.07
82262;BME280;71861;52.364;6.580;2023-08-07T05:15:54;101164.63;;;14.45;88.86
82262;BME280;71861;52.364;6.580;2023-08-07T05:18:19;101167.97;;;14.53;88.65
82262;BME280;71861;52.364;6.580;2023-08-07T05:20:44;101168.72;;;14.62;88.49
82262;BME280;71861;52.364;6.580;2023-08-07T05:23:10;101169.47;;;14.70;88.44
82262;BME280;71861;52.364;6.580;2023-08-07T05:25:36;101171.19;;;14.78;88.04
82262;BME280;71861;52.364;6.580;2023-08-07T05:28:02;101161.19;;;14.81;87.49
82262;BME280;71861;52.364;6.580;2023-08-07T05:30:28;101179.16;;;14.84;87.66
82262;BME280;71861;52.364;6.580;2023-08-07T05:32:53;101180.78;;;14.85;87.46
82262;BME280;71861;52.364;6.580;2023-08-07T05:35:19;101182.41;;;14.86;87.42
82262;BME280;71861;52.364;6.580;2023-08-07T05:37:44;101183.03;;;14.88;87.34
82262;BME280;71861;52.364;6.580;2023-08-07T05:40:09;101191.69;;;14.89;87.30
82262;BME280;71861;52.364;6.580;2023-08-07T05:42:37;101192.34;;;14.91;87.31
82262;BME280;71861;52.364;6.580;2023-08-07T05:45:03;101197.06;;;14.95;87.33
82262;BME280;71861;52.364;6.580;2023-08-07T05:47:28;101190.09;;;15.02;87.29
82262;BME280;71861;52.364;6.580;2023-08-07T05:49:54;101199.50;;;15.12;87.21
82262;BME280;71861;52.364;6.580;2023-08-07T05:52:19;101199.78;;;15.17;87.02
82262;BME280;71861;52.364;6.580;2023-08-07T05:54:45;101196.81;;;15.20;86.46
82262;BME280;71861;52.364;6.580;2023-08-07T05:57:11;101202.50;;;15.23;86.47
82262;BME280;71861;52.364;6.580;2023-08-07T05:59:36;101203.94;;;15.26;86.17
82262;BME280;71861;52.364;6.580;2023-08-07T06:02:02;101204.94;;;15.25;85.77
82262;BME280;71861;52.364;6.580;2023-08-07T06:04:28;101216.06;;;15.27;86.08
82262;BME280;71861;52.364;6.580;2023-08-07T06:06:54;101210.81;;;15.27;85.39
82262;BME280;71861;52.364;6.580;2023-08-07T06:09:19;101210.19;;;15.25;85.06
82262;BME280;71861;52.364;6.580;2023-08-07T06:11:46;101210.25;;;15.17;84.87
82262;BME280;71861;52.364;6.580;2023-08-07T06:14:12;101217.47;;;15.15;85.17
82262;BME280;71861;52.364;6.580;2023-08-07T06:16:37;101221.44;;;15.11;85.09
82262;BME280;71861;52.364;6.580;2023-08-07T06:19:02;101235.53;;;15.10;85.16
82262;BME280;71861;52.364;6.580;2023-08-07T06:21:28;101232.91;;;15.10;84.57
82262;BME280;71861;52.364;6.580;2023-08-07T06:23:54;101248.25;;;15.13;84.81
82262;BME280;71861;52.364;6.580;2023-08-07T06:26:19;101244.81;;;15.12;84.71
82262;BME280;71861;52.364;6.580;2023-08-07T06:28:44;101246.00;;;15.10;84.31
82262;BME280;71861;52.364;6.580;2023-08-07T06:31:11;101249.41;;;15.10;84.25
82262;BME280;71861;52.364;6.580;2023-08-07T06:33:37;101247.44;;;15.12;84.06
82262;BME280;71861;52.364;6.580;2023-08-07T06:36:03;101240.41;;;15.27;84.18
82262;BME280;71861;52.364;6.580;2023-08-07T06:38:29;101256.72;;;15.52;84.52
82262;BME280;71861;52.364;6.580;2023-08-07T06:40:55;101263.34;;;15.77;84.43
82262;BME280;71861;52.364;6.580;2023-08-07T06:43:21;101260.19;;;15.81;82.14
82262;BME280;71861;52.364;6.580;2023-08-07T06:45:48;101262.44;;;15.84;82.66
82262;BME280;71861;52.364;6.580;2023-08-07T06:48:14;101263.53;;;15.90;82.62
82262;BME280;71861;52.364;6.580;2023-08-07T06:50:39;101276.72;;;15.82;82.26
82262;BME280;71861;52.364;6.580;2023-08-07T06:53:05;101281.22;;;15.59;81.38
82262;BME280;71861;52.364;6.580;2023-08-07T06:55:30;101275.00;;;15.23;82.03
82262;BME280;71861;52.364;6.580;2023-08-07T06:57:55;101280.25;;;15.00;82.48
82262;BME280;71861;52.364;6.580;2023-08-07T07:00:21;101283.47;;;14.87;82.91
82262;BME280;71861;52.364;6.580;2023-08-07T07:02:46;101286.78;;;14.81;82.36
82262;BME280;71861;52.364;6.580;2023-08-07T07:05:11;101296.25;;;14.82;82.52
82262;BME280;71861;52.364;6.580;2023-08-07T07:07:38;101295.28;;;14.83;82.82
82262;BME280;71861;52.364;6.580;2023-08-07T07:10:03;101303.03;;;14.91;83.25
82262;BME280;71861;52.364;6.580;2023-08-07T07:12:29;101303.03;;;14.91;82.42
82262;BME280;71861;52.364;6.580;2023-08-07T07:14:54;101301.19;;;15.00;81.56
82262;BME280;71861;52.364;6.580;2023-08-07T07:17:20;101313.97;;;15.18;82.41
82262;BME280;71861;52.364;6.580;2023-08-07T07:19:45;101303.34;;;15.42;81.97
82262;BME280;71861;52.364;6.580;2023-08-07T07:22:11;101312.78;;;15.65;81.69
82262;BME280;71861;52.364;6.580;2023-08-07T07:24:37;101308.44;;;15.87;81.31
82262;BME280;71861;52.364;6.580;2023-08-07T07:27:03;101307.78;;;16.14;80.83
82262;BME280;71861;52.364;6.580;2023-08-07T07:29:28;101314.38;;;16.39;80.60
82262;BME280;71861;52.364;6.580;2023-08-07T07:31:54;101323.16;;;16.46;77.86
82262;BME280;71861;52.364;6.580;2023-08-07T07:34:20;101324.28;;;16.58;79.75
82262;BME280;71861;52.364;6.580;2023-08-07T07:36:45;101329.44;;;16.66;78.01
82262;BME280;71861;52.364;6.580;2023-08-07T07:39:11;101327.19;;;16.63;77.97
82262;BME280;71861;52.364;6.580;2023-08-07T07:41:36;101335.94;;;16.70;78.55
82262;BME280;71861;52.364;6.580;2023-08-07T07:44:02;101336.72;;;16.85;78.38
82262;BME280;71861;52.364;6.580;2023-08-07T07:46:27;101339.34;;;16.85;77.51
82262;BME280;71861;52.364;6.580;2023-08-07T07:48:53;101341.84;;;16.93;77.80
82262;BME280;71861;52.364;6.580;2023-08-07T07:51:18;101345.59;;;17.05;77.64
82262;BME280;71861;52.364;6.580;2023-08-07T07:53:43;101349.66;;;17.08;77.01
82262;BME280;71861;52.364;6.580;2023-08-07T07:56:09;101353.09;;;17.08;76.98
82262;BME280;71861;52.364;6.580;2023-08-07T07:58:34;101354.97;;;17.14;76.47
82262;BME280;71861;52.364;6.580;2023-08-07T08:00:59;101346.06;;;17.15;75.00
82262;BME280;71861;52.364;6.580;2023-08-07T08:03:25;101365.66;;;17.13;74.95
82262;BME280;71861;52.364;6.580;2023-08-07T08:05:51;101361.22;;;17.34;74.18
82262;BME280;71861;52.364;6.580;2023-08-07T08:08:17;101362.22;;;17.54;74.25
82262;BME280;71861;52.364;6.580;2023-08-07T08:10:43;101350.44;;;17.71;70.48
82262;BME280;71861;52.364;6.580;2023-08-07T08:13:09;101361.13;;;17.70;70.23
82262;BME280;71861;52.364;6.580;2023-08-07T08:15:35;101380.50;;;17.62;69.70
82262;BME280;71861;52.364;6.580;2023-08-07T08:18:00;101379.16;;;17.10;69.71
82262;BME280;71861;52.364;6.580;2023-08-07T08:20:26;101409.41;;;16.41;72.78
82262;BME280;71861;52.364;6.580;2023-08-07T08:22:51;101392.56;;;15.92;75.08
82262;BME280;71861;52.364;6.580;2023-08-07T08:25:17;101385.53;;;15.55;75.55
82262;BME280;71861;52.364;6.580;2023-08-07T08:27:44;101404.94;;;15.46;76.46
82262;BME280;71861;52.364;6.580;2023-08-07T08:30:10;101406.09;;;15.81;77.36
82262;BME280;71861;52.364;6.580;2023-08-07T08:32:36;101411.94;;;16.05;77.68
82262;BME280;71861;52.364;6.580;2023-08-07T08:35:01;101415.00;;;16.09;76.21
82262;BME280;71861;52.364;6.580;2023-08-07T08:37:27;101408.97;;;16.08;76.01
82262;BME280;71861;52.364;6.580;2023-08-07T08:39:54;101412.19;;;16.10;76.38
82262;BME280;71861;52.364;6.580;2023-08-07T08:42:19;101413.16;;;16.46;75.86
82262;BME280;71861;52.364;6.580;2023-08-07T08:44:51;101409.56;;;16.83;77.18
82262;BME280;71861;52.364;6.580;2023-08-07T08:47:18;101405.53;;;17.23;73.26
82262;BME280;71861;52.364;6.580;2023-08-07T08:49:46;101415.63;;;17.61;73.19
82262;BME280;71861;52.364;6.580;2023-08-07T08:52:12;101409.59;;;17.88;70.77
82262;BME280;71861;52.364;6.580;2023-08-07T08:54:39;101406.38;;;18.20;72.12
82262;BME280;71861;52.364;6.580;2023-08-07T08:57:06;101398.31;;;18.63;67.70
82262;BME280;71861;52.364;6.580;2023-08-07T08:59:32;101398.66;;;19.07;70.88
82262;BME280;71861;52.364;6.580;2023-08-07T09:01:58;101390.41;;;19.29;67.40
82262;BME280;71861;52.364;6.580;2023-08-07T09:04:23;101396.06;;;19.20;67.19
82262;BME280;71861;52.364;6.580;2023-08-07T09:06:49;101398.22;;;18.97;66.87
82262;BME280;71861;52.364;6.580;2023-08-07T09:09:16;101410.03;;;18.54;65.23
82262;BME280;71861;52.364;6.580;2023-08-07T09:11:43;101423.19;;;18.26;65.86
82262;BME280;71861;52.364;6.580;2023-08-07T09:14:11;101418.72;;;17.92;63.73
82262;BME280;71861;52.364;6.580;2023-08-07T09:16:40;101424.66;;;18.01;67.03
82262;BME280;71861;52.364;6.580;2023-08-07T09:19:06;101430.38;;;18.39;65.85
82262;BME280;71861;52.364;6.580;2023-08-07T09:21:31;101419.53;;;18.55;62.37
82262;BME280;71861;52.364;6.580;2023-08-07T09:23:57;101427.75;;;18.79;62.41
82262;BME280;71861;52.364;6.580;2023-08-07T09:26:23;101415.44;;;18.99;56.66
82262;BME280;71861;52.364;6.580;2023-08-07T09:28:52;101421.34;;;19.08;59.54
82262;BME280;71861;52.364;6.580;2023-08-07T09:31:22;101425.63;;;19.09;58.89
82262;BME280;71861;52.364;6.580;2023-08-07T09:33:51;101418.69;;;18.95;57.60
82262;BME280;71861;52.364;6.580;2023-08-07T09:36:17;101434.03;;;18.85;58.67
82262;BME280;71861;52.364;6.580;2023-08-07T09:38:44;101444.31;;;18.73;56.91
82262;BME280;71861;52.364;6.580;2023-08-07T09:41:17;101432.06;;;18.53;56.53
82262;BME280;71861;52.364;6.580;2023-08-07T09:43:43;101434.94;;;18.58;58.02
82262;BME280;71861;52.364;6.580;2023-08-07T09:46:08;101446.63;;;18.96;59.04
82262;BME280;71861;52.364;6.580;2023-08-07T09:48:43;101443.56;;;19.46;58.15
82262;BME280;71861;52.364;6.580;2023-08-07T09:51:10;101442.56;;;19.73;57.79
82262;BME280;71861;52.364;6.580;2023-08-07T09:53:36;101435.66;;;19.59;52.93
82262;BME280;71861;52.364;6.580;2023-08-07T09:56:01;101458.25;;;19.14;55.64
82262;BME280;71861;52.364;6.580;2023-08-07T09:58:28;101459.69;;;18.70;54.89
82262;BME280;71861;52.364;6.580;2023-08-07T10:00:54;101471.41;;;18.33;54.36
82262;BME280;71861;52.364;6.580;2023-08-07T10:03:24;101471.47;;;18.12;57.07
82262;BME280;71861;52.364;6.580;2023-08-07T10:05:50;101478.94;;;18.08;57.85
82262;BME280;71861;52.364;6.580;2023-08-07T10:08:16;101467.44;;;18.16;58.14
82262;BME280;71861;52.364;6.580;2023-08-07T10:10:43;101457.22;;;18.62;57.62
82262;BME280;71861;52.364;6.580;2023-08-07T10:13:09;101457.00;;;19.04;55.66
82262;BME280;71861;52.364;6.580;2023-08-07T10:15:38;101456.28;;;19.36;55.56
82262;BME280;71861;52.364;6.580;2023-08-07T10:18:05;101460.59;;;19.69;53.28
82262;BME280;71861;52.364;6.580;2023-08-07T10:20:31;101452.25;;;20.05;54.71
82262;BME280;71861;52.364;6.580;2023-08-07T10:23:10;101458.13;;;20.40;50.46
82262;BME280;71861;52.364;6.580;2023-08-07T10:25:41;101454.75;;;20.83;51.71
82262;BME280;71861;52.364;6.580;2023-08-07T10:28:13;101463.91;;;20.74;48.28
82262;BME280;71861;52.364;6.580;2023-08-07T10:30:41;101454.50;;;20.34;48.31
82262;BME280;71861;52.364;6.580;2023-08-07T10:33:09;101479.88;;;19.76;50.16
82262;BME280;71861;52.364;6.580;2023-08-07T10:35:35;101487.03;;;19.16;50.34
82262;BME280;71861;52.364;6.580;2023-08-07T10:38:08;101484.75;;;19.00;53.13
82262;BME280;71861;52.364;6.580;2023-08-07T10:41:19;101495.59;;;18.84;54.23
82262;BME280;71861;52.364;6.580;2023-08-07T10:43:23;101508.88;;;18.63;54.78
82262;BME280;71861;52.364;6.580;2023-08-07T10:45:48;101514.56;;;18.39;56.12
82262;BME280;71861;52.364;6.580;2023-08-07T10:48:18;101530.03;;;17.99;58.87
82262;BME280;71861;52.364;6.580;2023-08-07T10:53:30;101522.91;;;17.72;59.36
82262;BME280;71861;52.364;6.580;2023-08-07T10:55:56;101519.78;;;17.83;58.87
82262;BME280;71861;52.364;6.580;2023-08-07T10:58:29;101517.75;;;18.06;58.90
82262;BME280;71861;52.364;6.580;2023-08-07T11:03:49;101523.91;;;19.16;56.10
82262;BME280;71861;52.364;6.580;2023-08-07T11:06:16;101510.28;;;19.59;52.47
82262;BME280;71861;52.364;6.580;2023-08-07T11:08:41;101509.69;;;19.70;51.01
82262;BME280;71861;52.364;6.580;2023-08-07T11:11:07;101521.66;;;19.99;53.38
82262;BME280;71861;52.364;6.580;2023-08-07T11:13:33;101514.00;;;20.17;53.65
82262;BME280;71861;52.364;6.580;2023-08-07T11:16:02;101528.38;;;20.08;51.92
82262;BME280;71861;52.364;6.580;2023-08-07T11:18:29;101521.28;;;20.02;50.26
82262;BME280;71861;52.364;6.580;2023-08-07T11:20:55;101523.09;;;19.88;49.07
82262;BME280;71861;52.364;6.580;2023-08-07T11:23:24;101537.91;;;19.76;49.24
82262;BME280;71861;52.364;6.580;2023-08-07T11:25:51;101531.81;;;20.02;51.66
82262;BME280;71861;52.364;6.580;2023-08-07T11:28:18;101530.75;;;20.68;52.24
82262;BME280;71861;52.364;6.580;2023-08-07T11:30:44;101521.16;;;20.93;51.01
82262;BME280;71861;52.364;6.580;2023-08-07T11:33:11;101533.16;;;20.89;50.33
82262;BME280;71861;52.364;6.580;2023-08-07T11:35:41;101517.94;;;20.78;51.28
82262;BME280;71861;52.364;6.580;2023-08-07T11:38:07;101529.34;;;20.72;49.86
82262;BME280;71861;52.364;6.580;2023-08-07T11:40:32;101528.94;;;20.82;52.02
82262;BME280;71861;52.364;6.580;2023-08-07T11:42:57;101516.28;;;21.03;51.80
82262;BME280;71861;52.364;6.580;2023-08-07T11:45:23;101527.63;;;21.10;53.29
82262;BME280;71861;52.364;6.580;2023-08-07T11:47:49;101524.47;;;20.76;51.47
82262;BME280;71861;52.364;6.580;2023-08-07T11:50:14;101531.84;;;20.41;52.28
82262;BME280;71861;52.364;6.580;2023-08-07T11:52:40;101540.41;;;20.17;53.80
82262;BME280;71861;52.364;6.580;2023-08-07T11:55:05;101539.53;;;19.84;54.71
82262;BME280;71861;52.364;6.580;2023-08-07T11:57:32;101537.50;;;19.79;54.80
82262;BME280;71861;52.364;6.580;2023-08-07T11:59:58;101533.03;;;19.73;51.32
82262;BME280;71861;52.364;6.580;2023-08-07T12:02:24;101535.22;;;19.57;51.68
82262;BME280;71861;52.364;6.580;2023-08-07T12:04:49;101541.31;;;19.64;52.39
82262;BME280;71861;52.364;6.580;2023-08-07T12:07:17;101516.34;;;19.47;49.53
82262;BME280;71861;52.364;6.580;2023-08-07T12:09:48;101542.03;;;19.32;49.98
82262;BME280;71861;52.364;6.580;2023-08-07T12:12:13;101555.06;;;19.40;52.80
82262;BME280;71861;52.364;6.580;2023-08-07T12:14:39;101561.91;;;19.34;51.17
82262;BME280;71861;52.364;6.580;2023-08-07T12:17:05;101558.50;;;19.47;49.63
82262;BME280;71861;52.364;6.580;2023-08-07T12:19:39;101561.75;;;19.42;50.90
82262;BME280;71861;52.364;6.580;2023-08-07T12:22:10;101561.75;;;19.49;50.33
82262;BME280;71861;52.364;6.580;2023-08-07T12:24:36;101570.25;;;19.51;50.20
82262;BME280;71861;52.364;6.580;2023-08-07T12:27:05;101560.41;;;19.85;52.37
82262;BME280;71861;52.364;6.580;2023-08-07T12:29:30;101544.84;;;20.30;50.30
82262;BME280;71861;52.364;6.580;2023-08-07T12:31:56;101551.47;;;20.84;52.09
82262;BME280;71861;52.364;6.580;2023-08-07T12:34:24;101553.53;;;21.33;47.40
82262;BME280;71861;52.364;6.580;2023-08-07T12:36:49;101551.38;;;21.17;46.77
82262;BME280;71861;52.364;6.580;2023-08-07T12:39:14;101542.06;;;20.95;45.56
82262;BME280;71861;52.364;6.580;2023-08-07T12:41:40;101531.56;;;20.75;46.75
82262;BME280;71861;52.364;6.580;2023-08-07T12:44:05;101538.47;;;20.76;46.73
82262;BME280;71861;52.364;6.580;2023-08-07T12:46:30;101540.06;;;20.90;47.75
82262;BME280;71861;52.364;6.580;2023-08-07T12:48:56;101540.69;;;20.79;46.50
82262;BME280;71861;52.364;6.580;2023-08-07T12:51:21;101557.63;;;20.59;48.34
82262;BME280;71861;52.364;6.580;2023-08-07T12:53:46;101557.03;;;20.37;48.12
82262;BME280;71861;52.364;6.580;2023-08-07T12:56:12;101539.16;;;20.46;48.10
82262;BME280;71861;52.364;6.580;2023-08-07T12:58:37;101547.88;;;20.46;47.77
82262;BME280;71861;52.364;6.580;2023-08-07T13:01:04;101550.13;;;20.49;47.21
82262;BME280;71861;52.364;6.580;2023-08-07T13:03:29;101548.88;;;20.45;48.13
82262;BME280;71861;52.364;6.580;2023-08-07T13:05:55;101538.72;;;20.55;49.09
82262;BME280;71861;52.364;6.580;2023-08-07T13:08:20;101544.78;;;20.75;49.65
82262;BME280;71861;52.364;6.580;2023-08-07T13:10:46;101538.19;;;21.10;49.11
82262;BME280;71861;52.364;6.580;2023-08-07T13:13:11;101547.88;;;21.29;48.69
82262;BME280;71861;52.364;6.580;2023-08-07T13:15:36;101551.75;;;21.65;49.39
82262;BME280;71861;52.364;6.580;2023-08-07T13:18:02;101551.00;;;21.89;47.75
82262;BME280;71861;52.364;6.580;2023-08-07T13:20:28;101554.03;;;21.92;45.45
82262;BME280;71861;52.364;6.580;2023-08-07T13:22:58;101558.66;;;21.66;46.73
82262;BME280;71861;52.364;6.580;2023-08-07T13:25:23;101543.53;;;21.41;47.37
82262;BME280;71861;52.364;6.580;2023-08-07T13:27:49;101534.44;;;21.31;46.99
82262;BME280;71861;52.364;6.580;2023-08-07T13:30:14;101559.44;;;21.35;48.90
82262;BME280;71861;52.364;6.580;2023-08-07T13:32:39;101545.78;;;21.82;48.02
82262;BME280;71861;52.364;6.580;2023-08-07T13:35:05;101542.41;;;22.18;47.81
82262;BME280;71861;52.364;6.580;2023-08-07T13:37:31;101538.63;;;22.32;46.34
82262;BME280;71861;52.364;6.580;2023-08-07T13:39:57;101534.25;;;22.44;46.28
82262;BME280;71861;52.364;6.580;2023-08-07T13:42:25;101550.69;;;22.28;46.17
82262;BME280;71861;52.364;6.580;2023-08-07T13:44:57;101562.16;;;21.97;47.75
82262;BME280;71861;52.364;6.580;2023-08-07T13:47:23;101561.25;;;21.72;47.52
82262;BME280;71861;52.364;6.580;2023-08-07T13:49:50;101557.91;;;21.52;48.20
82262;BME280;71861;52.364;6.580;2023-08-07T13:52:16;101561.97;;;21.55;47.60
82262;BME280;71861;52.364;6.580;2023-08-07T13:54:41;101560.34;;;21.54;46.21
82262;BME280;71861;52.364;6.580;2023-08-07T13:57:07;101554.25;;;21.53;47.58
82262;BME280;71861;52.364;6.580;2023-08-07T13:59:32;101562.88;;;21.73;49.28
82262;BME280;71861;52.364;6.580;2023-08-07T14:01:58;101572.88;;;21.78;47.95
82262;BME280;71861;52.364;6.580;2023-08-07T14:04:24;101571.91;;;21.97;48.56
82262;BME280;71861;52.364;6.580;2023-08-07T14:06:50;101557.91;;;22.21;48.04
82262;BME280;71861;52.364;6.580;2023-08-07T14:09:15;101562.41;;;22.14;46.61
82262;BME280;71861;52.364;6.580;2023-08-07T14:11:42;101572.84;;;22.09;48.54
82262;BME280;71861;52.364;6.580;2023-08-07T14:14:07;101567.91;;;21.88;47.97
82262;BME280;71861;52.364;6.580;2023-08-07T14:16:32;101582.84;;;21.76;48.26
82262;BME280;71861;52.364;6.580;2023-08-07T14:18:58;101570.59;;;21.43;46.86
82262;BME280;71861;52.364;6.580;2023-08-07T14:21:23;101584.88;;;21.29;46.17
82262;BME280;71861;52.364;6.580;2023-08-07T14:23:49;101581.63;;;21.27;47.46
82262;BME280;71861;52.364;6.580;2023-08-07T14:26:15;101582.72;;;21.07;45.70
82262;BME280;71861;52.364;6.580;2023-08-07T14:28:41;101582.03;;;21.24;48.30
82262;BME280;71861;52.364;6.580;2023-08-07T14:31:08;101593.16;;;21.39;45.60
82262;BME280;71861;52.364;6.580;2023-08-07T14:33:33;101577.75;;;21.30;43.27
82262;BME280;71861;52.364;6.580;2023-08-07T14:35:59;101586.41;;;20.99;45.69
82262;BME280;71861;52.364;6.580;2023-08-07T14:38:25;101602.72;;;20.51;46.81
82262;BME280;71861;52.364;6.580;2023-08-07T14:40:50;101607.78;;;20.26;48.14
82262;BME280;71861;52.364;6.580;2023-08-07T14:43:16;101600.63;;;20.07;47.77
82262;BME280;71861;52.364;6.580;2023-08-07T14:45:41;101619.09;;;19.94;48.40
82262;BME280;71861;52.364;6.580;2023-08-07T14:48:06;101622.25;;;19.70;47.50
82262;BME280;71861;52.364;6.580;2023-08-07T14:50:32;101629.50;;;19.55;50.08
82262;BME280;71861;52.364;6.580;2023-08-07T14:52:57;101625.41;;;19.46;51.06
82262;BME280;71861;52.364;6.580;2023-08-07T14:55:23;101633.50;;;19.38;51.48
82262;BME280;71861;52.364;6.580;2023-08-07T14:57:48;101631.75;;;19.24;51.25
82262;BME280;71861;52.364;6.580;2023-08-07T15:00:14;101622.34;;;19.08;50.25
82262;BME280;71861;52.364;6.580;2023-08-07T15:02:39;101628.97;;;18.98;50.58
82262;BME280;71861;52.364;6.580;2023-08-07T15:05:06;101626.63;;;18.82;51.02
82262;BME280;71861;52.364;6.580;2023-08-07T15:07:31;101641.06;;;18.58;50.60
82262;BME280;71861;52.364;6.580;2023-08-07T15:09:57;101641.50;;;18.41;51.62
82262;BME280;71861;52.364;6.580;2023-08-07T15:12:22;101636.06;;;18.21;50.57
82262;BME280;71861;52.364;6.580;2023-08-07T15:14:47;101626.03;;;18.10;51.39
82262;BME280;71861;52.364;6.580;2023-08-07T15:17:13;101637.28;;;18.04;51.42
82262;BME280;71861;52.364;6.580;2023-08-07T15:19:39;101643.34;;;18.04;52.43
82262;BME280;71861;52.364;6.580;2023-08-07T15:22:05;101633.34;;;18.14;52.75
82262;BME280;71861;52.364;6.580;2023-08-07T15:24:30;101638.25;;;18.39;51.94
82262;BME280;71861;52.364;6.580;2023-08-07T15:26:55;101636.59;;;18.59;51.24
82262;BME280;71861;52.364;6.580;2023-08-07T15:29:21;101650.38;;;18.61;49.89
82262;BME280;71861;52.364;6.580;2023-08-07T15:31:46;101639.09;;;18.67;50.58
82262;BME280;71861;52.364;6.580;2023-08-07T15:34:12;101644.41;;;18.73;49.54
82262;BME280;71861;52.364;6.580;2023-08-07T15:36:37;101628.47;;;18.81;50.28
82262;BME280;71861;52.364;6.580;2023-08-07T15:39:02;101636.41;;;18.88;48.79
82262;BME280;71861;52.364;6.580;2023-08-07T15:41:28;101643.84;;;18.78;48.21
82262;BME280;71861;52.364;6.580;2023-08-07T15:43:53;101645.00;;;18.69;47.90
82262;BME280;71861;52.364;6.580;2023-08-07T15:46:19;101646.75;;;18.62;49.32
82262;BME280;71861;52.364;6.580;2023-08-07T15:48:44;101654.34;;;18.50;49.74
82262;BME280;71861;52.364;6.580;2023-08-07T15:51:09;101653.41;;;18.37;50.00